createdAt,value
2023-03-01T00:00:55.836Z,90.30
2023-03-01T00:04:19.968Z,90.20
2023-03-01T00:07:43.487Z,90.20
2023-03-01T00:11:14.361Z,90.20
2023-03-01T00:14:38.924Z,90.30
2023-03-01T00:18:10.533Z,90.20
2023-03-01T00:21:36.097Z,90.20
2023-03-01T00:24:59.641Z,90.30
2023-03-01T00:28:25.449Z,90.40
2023-03-01T00:31:49.971Z,90.40
2023-03-01T00:35:14.065Z,90.40
2023-03-01T00:38:38.781Z,90.50
2023-03-01T00:42:02.942Z,90.50
2023-03-01T00:45:28.872Z,90.60
2023-03-01T00:48:52.997Z,90.90
2023-03-01T00:52:17.032Z,91.20
2023-03-01T00:55:41.228Z,91.30
2023-03-01T00:59:07.346Z,91.40
2023-03-01T01:02:36.260Z,91.40
2023-03-01T01:06:10.862Z,91.50
2023-03-01T01:09:35.942Z,91.40
2023-03-01T01:13:00.044Z,91.30
2023-03-01T01:16:25.677Z,91.70
2023-03-01T01:19:51.330Z,91.50
2023-03-01T01:23:15.054Z,91.50
2023-03-01T01:26:39.124Z,91.60
2023-03-01T01:30:02.978Z,91.60
2023-03-01T01:33:27.038Z,91.60
2023-03-01T01:36:54.902Z,91.80
2023-03-01T01:40:19.218Z,92.00
2023-03-01T01:43:45.170Z,92.00
2023-03-01T01:47:14.970Z,92.00
2023-03-01T01:50:42.610Z,92.10
2023-03-01T01:54:13.108Z,92.10
2023-03-01T01:57:40.916Z,92.20
2023-03-01T02:01:06.106Z,92.20
2023-03-01T02:04:30.554Z,92.20
2023-03-01T02:07:54.651Z,92.20
2023-03-01T02:11:23.030Z,92.20
2023-03-01T02:14:47.350Z,92.30
2023-03-01T02:18:14.386Z,92.30
2023-03-01T02:21:53.491Z,92.40
2023-03-01T02:25:36.534Z,92.40
2023-03-01T02:29:03.576Z,92.40
2023-03-01T02:32:28.456Z,92.40
2023-03-01T02:35:54.177Z,92.40
2023-03-01T02:39:21.732Z,92.40
2023-03-01T02:42:53.079Z,92.50
2023-03-01T02:46:21.865Z,92.50
2023-03-01T02:49:46.076Z,92.60
2023-03-01T02:53:15.072Z,92.50
2023-03-01T02:56:39.119Z,92.60
2023-03-01T03:00:08.855Z,92.70
2023-03-01T03:03:35.414Z,92.70
2023-03-01T03:06:59.480Z,92.70
2023-03-01T03:10:26.458Z,92.70
2023-03-01T03:13:50.003Z,92.80
2023-03-01T03:17:15.102Z,92.80
2023-03-01T03:20:42.478Z,92.80
2023-03-01T03:24:06.863Z,92.90
2023-03-01T03:27:32.985Z,92.90
2023-03-01T03:30:57.142Z,92.80
2023-03-01T03:34:21.330Z,92.80
2023-03-01T03:38:06.378Z,92.90
2023-03-01T03:41:39.159Z,92.90
2023-03-01T03:45:03.198Z,93.10
2023-03-01T03:48:30.749Z,93.10
2023-03-01T03:51:55.140Z,93.10
2023-03-01T03:55:21.254Z,93.20
2023-03-01T03:58:44.843Z,93.30
2023-03-01T04:02:11.386Z,93.20
2023-03-01T04:05:36.325Z,93.10
2023-03-01T04:09:03.884Z,93.10
2023-03-01T04:12:29.516Z,93.20
2023-03-01T04:15:53.315Z,93.40
2023-03-01T04:19:18.130Z,93.50
2023-03-01T04:22:42.772Z,93.50
2023-03-01T04:26:06.592Z,93.70
2023-03-01T04:29:31.800Z,93.70
2023-03-01T04:32:56.198Z,93.80
2023-03-01T04:36:22.291Z,93.90
2023-03-01T04:39:46.639Z,93.90
2023-03-01T04:43:11.951Z,93.90
2023-03-01T04:46:38.237Z,93.80
2023-03-01T04:50:02.230Z,93.70
2023-03-01T04:53:26.236Z,93.70
2023-03-01T04:56:50.192Z,93.70
2023-03-01T05:00:28.764Z,93.70
2023-03-01T05:03:55.494Z,93.80
2023-03-01T05:07:20.279Z,93.80
2023-03-01T05:10:46.828Z,93.80
2023-03-01T05:14:11.625Z,93.90
2023-03-01T05:17:36.100Z,93.90
2023-03-01T05:21:07.249Z,93.90
2023-03-01T05:24:32.292Z,93.80
2023-03-01T05:27:56.295Z,93.80
2023-03-01T05:31:21.548Z,93.90
2023-03-01T05:34:47.240Z,93.90
2023-03-01T05:38:14.192Z,93.90
2023-03-01T05:41:38.336Z,93.90
2023-03-01T05:45:02.264Z,93.90
2023-03-01T05:48:26.245Z,93.90
2023-03-01T05:51:52.539Z,93.80
2023-03-01T05:55:18.711Z,93.90
2023-03-01T05:58:42.310Z,93.90
2023-03-01T06:02:07.543Z,94.00
2023-03-01T06:05:32.031Z,94.00
2023-03-01T06:08:56.605Z,94.00
2023-03-01T06:12:21.669Z,94.10
2023-03-01T06:15:45.348Z,94.10
2023-03-01T06:19:09.413Z,94.30
2023-03-01T06:22:33.544Z,94.30
2023-03-01T06:25:57.421Z,94.30
2023-03-01T06:29:23.377Z,94.30
2023-03-01T06:32:47.026Z,94.30
2023-03-01T06:36:11.702Z,94.30
2023-03-01T06:39:36.502Z,94.20
2023-03-01T06:43:01.803Z,94.20
2023-03-01T06:46:28.736Z,94.30
2023-03-01T06:49:53.359Z,94.30
2023-03-01T06:53:17.787Z,94.30
2023-03-01T06:56:42.496Z,94.30
2023-03-01T07:00:07.966Z,94.40
2023-03-01T07:03:33.697Z,94.40
2023-03-01T07:06:57.306Z,94.30
2023-03-01T07:10:21.447Z,94.10
2023-03-01T07:13:45.357Z,94.00
2023-03-01T07:17:09.569Z,93.90
2023-03-01T07:20:34.860Z,93.70
2023-03-01T07:23:59.404Z,93.40
2023-03-01T07:27:23.627Z,93.70
2023-03-01T07:30:47.404Z,95.10
2023-03-01T07:34:11.612Z,97.70
2023-03-01T07:37:39.629Z,93.70
2023-03-01T07:41:06.988Z,87.00
2023-03-01T07:44:31.465Z,75.30
2023-03-01T07:47:55.926Z,66.60
2023-03-01T07:51:21.281Z,58.10
2023-03-01T07:54:50.355Z,54.10
2023-03-01T07:58:14.425Z,53.00
2023-03-01T08:01:38.504Z,48.60
2023-03-01T08:05:02.407Z,49.50
2023-03-01T08:08:27.722Z,47.50
2023-03-01T08:11:55.510Z,44.30
2023-03-01T08:15:19.727Z,43.10
2023-03-01T08:18:44.269Z,42.90
2023-03-01T08:22:08.241Z,46.10
2023-03-01T08:25:31.838Z,44.50
2023-03-01T08:28:56.776Z,43.60
2023-03-01T08:32:20.679Z,43.80
2023-03-01T08:35:44.400Z,41.50
2023-03-01T08:39:09.218Z,40.90
2023-03-01T08:42:32.903Z,38.80
2023-03-01T08:45:57.969Z,36.60
2023-03-01T08:49:22.325Z,36.10
2023-03-01T08:52:46.454Z,34.80
2023-03-01T08:56:10.898Z,33.60
2023-03-01T08:59:38.081Z,34.40
2023-03-01T09:03:03.185Z,34.80
2023-03-01T09:06:26.889Z,33.80
2023-03-01T09:09:50.392Z,32.70
2023-03-01T09:13:14.060Z,33.60
2023-03-01T09:16:37.830Z,33.30
2023-03-01T09:20:06.408Z,33.40
2023-03-01T09:23:30.029Z,33.80
2023-03-01T09:26:55.712Z,33.70
2023-03-01T09:30:19.682Z,34.00
2023-03-01T09:33:44.177Z,35.30
2023-03-01T09:37:09.111Z,34.40
2023-03-01T09:40:32.700Z,33.70
2023-03-01T09:44:00.102Z,34.60
2023-03-01T09:47:26.312Z,33.20
2023-03-01T09:50:50.175Z,33.10
2023-03-01T09:54:15.422Z,33.70
2023-03-01T09:57:45.757Z,33.20
2023-03-01T10:01:32.651Z,33.50
2023-03-01T10:05:06.830Z,34.80
2023-03-01T10:08:37.242Z,34.60
2023-03-01T10:12:04.410Z,35.00
2023-03-01T10:15:36.163Z,35.70
2023-03-01T10:19:03.754Z,36.10
2023-03-01T10:22:30.986Z,35.20
2023-03-01T10:26:09.045Z,34.90
2023-03-01T10:29:40.282Z,36.80
2023-03-01T10:33:04.978Z,37.30
2023-03-01T10:36:28.761Z,37.20
2023-03-01T10:40:02.046Z,37.30
2023-03-01T10:43:26.534Z,38.00
2023-03-01T10:47:02.074Z,38.30
2023-03-01T10:50:25.752Z,39.10
2023-03-01T10:53:52.625Z,38.10
2023-03-01T10:57:31.644Z,40.30
2023-03-01T11:00:56.888Z,41.80
2023-03-01T11:04:22.727Z,41.80
2023-03-01T11:07:50.368Z,44.40
2023-03-01T11:11:25.575Z,43.00
2023-03-01T11:14:50.583Z,42.80
2023-03-01T11:18:26.620Z,43.30
2023-03-01T11:22:02.114Z,43.80
2023-03-01T11:25:28.894Z,44.80
2023-03-01T11:28:58.171Z,46.50
2023-03-01T11:32:25.545Z,48.30
2023-03-01T11:35:57.629Z,48.90
2023-03-01T11:39:32.870Z,49.50
2023-03-01T11:43:04.883Z,49.40
2023-03-01T11:46:48.823Z,49.20
2023-03-01T11:50:30.926Z,48.20
2023-03-01T11:54:15.322Z,48.00
2023-03-01T11:58:00.933Z,47.90
2023-03-01T12:01:42.242Z,48.00
2023-03-01T12:05:42.056Z,48.10
2023-03-01T12:09:22.588Z,48.00
2023-03-01T12:13:23.184Z,46.70
2023-03-01T12:17:09.117Z,46.80
2023-03-01T12:20:40.286Z,47.40
2023-03-01T12:24:33.861Z,48.20
2023-03-01T12:28:30.134Z,49.00
2023-03-01T12:32:18.985Z,49.40
2023-03-01T12:36:14.976Z,49.60
2023-03-01T12:39:52.834Z,49.60
2023-03-01T12:43:28.261Z,49.50
2023-03-01T12:47:08.568Z,49.30
2023-03-01T12:50:41.517Z,49.80
2023-03-01T12:54:16.520Z,50.10
2023-03-01T12:57:48.238Z,49.60
2023-03-01T13:01:20.857Z,49.80
2023-03-01T13:05:00.182Z,49.60
2023-03-01T13:08:30.185Z,48.60
2023-03-01T13:11:53.844Z,48.40
2023-03-01T13:15:37.276Z,48.40
2023-03-01T13:19:10.866Z,47.30
2023-03-01T13:22:44.185Z,47.30
2023-03-01T13:26:16.603Z,47.10
2023-03-01T13:29:47.858Z,46.60
2023-03-01T13:33:42.041Z,44.90
2023-03-01T13:37:11.797Z,45.30
2023-03-01T13:41:02.267Z,45.60
2023-03-01T13:44:30.845Z,45.80
2023-03-01T13:48:02.242Z,45.30
2023-03-01T13:51:27.958Z,44.40
2023-03-01T13:54:51.811Z,43.70
2023-03-01T13:58:24.273Z,43.40
2023-03-01T14:01:56.156Z,44.50
2023-03-01T14:05:19.664Z,44.00
2023-03-01T14:08:44.284Z,44.90
2023-03-01T14:12:22.220Z,44.50
2023-03-01T14:15:58.687Z,45.00
2023-03-01T14:19:33.136Z,44.70
2023-03-01T14:23:00.241Z,44.80
2023-03-01T14:26:24.485Z,45.00
2023-03-01T14:29:57.975Z,44.80
2023-03-01T14:33:25.952Z,44.60
2023-03-01T14:36:49.487Z,44.80
2023-03-01T14:40:25.123Z,44.80
2023-03-01T14:43:52.285Z,44.60
2023-03-01T14:47:21.816Z,44.70
2023-03-01T14:50:47.641Z,44.80
2023-03-01T14:54:23.598Z,45.10
2023-03-01T14:57:49.359Z,45.00
2023-03-01T15:01:17.829Z,44.30
2023-03-01T15:04:43.640Z,44.80
2023-03-01T15:08:09.721Z,44.10
2023-03-01T15:11:34.432Z,44.50
2023-03-01T15:15:04.393Z,45.10
2023-03-01T15:18:31.050Z,45.30
2023-03-01T15:21:54.720Z,45.10
2023-03-01T15:25:22.764Z,45.20
2023-03-01T15:28:52.641Z,45.60
2023-03-01T15:32:28.891Z,45.40
2023-03-01T15:35:55.015Z,45.50
2023-03-01T15:39:39.899Z,46.40
2023-03-01T15:43:06.686Z,47.00
2023-03-01T15:46:34.066Z,47.40
2023-03-01T15:49:59.681Z,47.60
2023-03-01T15:53:23.438Z,48.20
2023-03-01T15:56:46.887Z,48.50
2023-03-01T16:00:15.164Z,48.60
2023-03-01T16:03:38.649Z,48.70
2023-03-01T16:07:02.179Z,48.90
2023-03-01T16:10:26.569Z,49.10
2023-03-01T16:13:50.732Z,48.90
2023-03-01T16:17:16.350Z,49.10
2023-03-01T16:20:39.930Z,49.40
2023-03-01T16:24:03.602Z,49.70
2023-03-01T16:27:27.149Z,50.30
2023-03-01T16:30:51.634Z,50.70
2023-03-01T16:34:16.993Z,51.50
2023-03-01T16:37:41.743Z,51.90
2023-03-01T16:41:06.521Z,52.20
2023-03-01T16:44:29.987Z,52.60
2023-03-01T16:47:55.841Z,52.90
2023-03-01T16:51:21.730Z,53.30
2023-03-01T16:54:45.378Z,53.60
2023-03-01T16:58:10.122Z,54.00
2023-03-01T17:01:40.362Z,54.40
2023-03-01T17:05:04.749Z,55.30
2023-03-01T17:08:29.722Z,55.30
2023-03-01T17:11:53.214Z,55.80
2023-03-01T17:15:16.863Z,56.30
2023-03-01T17:18:40.650Z,56.50
2023-03-01T17:22:04.347Z,57.00
2023-03-01T17:25:29.507Z,57.40
2023-03-01T17:28:53.090Z,57.80
2023-03-01T17:32:16.714Z,58.20
2023-03-01T17:35:40.405Z,58.60
2023-03-01T17:39:03.963Z,59.20
2023-03-01T17:42:29.264Z,59.60
2023-03-01T17:45:54.490Z,59.90
2023-03-01T17:49:18.227Z,60.30
2023-03-01T17:52:42.468Z,60.70
2023-03-01T17:56:08.095Z,61.20
2023-03-01T17:59:33.989Z,61.50
2023-03-01T18:02:57.469Z,61.70
2023-03-01T18:06:23.076Z,61.60
2023-03-01T18:09:46.697Z,61.90
2023-03-01T18:13:10.864Z,62.00
2023-03-01T18:16:36.070Z,62.50
2023-03-01T18:19:59.820Z,62.80
2023-03-01T18:23:23.403Z,63.30
2023-03-01T18:26:46.940Z,63.80
2023-03-01T18:30:11.966Z,64.40
2023-03-01T18:33:37.524Z,65.00
2023-03-01T18:37:09.203Z,65.60
2023-03-01T18:40:33.575Z,65.80
2023-03-01T18:43:57.449Z,66.20
2023-03-01T18:47:20.999Z,66.30
2023-03-01T18:50:45.955Z,66.10
2023-03-01T18:54:12.706Z,66.10
2023-03-01T18:57:36.525Z,66.30
2023-03-01T19:01:02.462Z,66.30
2023-03-01T19:04:27.160Z,65.90
2023-03-01T19:07:52.661Z,65.80
2023-03-01T19:11:17.875Z,66.00
2023-03-01T19:14:41.519Z,65.90
2023-03-01T19:18:05.936Z,65.40
2023-03-01T19:21:31.778Z,65.10
2023-03-01T19:24:57.057Z,65.20
2023-03-01T19:28:20.571Z,64.90
2023-03-01T19:31:44.204Z,64.90
2023-03-01T19:35:08.824Z,65.10
2023-03-01T19:38:32.530Z,65.20
2023-03-01T19:41:57.860Z,65.30
2023-03-01T19:45:31.858Z,65.60
2023-03-01T19:48:58.833Z,66.00
2023-03-01T19:52:22.423Z,66.40
2023-03-01T19:55:46.209Z,66.70
2023-03-01T19:59:11.144Z,66.80
2023-03-01T20:02:34.781Z,67.20
2023-03-01T20:05:58.866Z,67.40
2023-03-01T20:09:22.776Z,67.40
2023-03-01T20:12:46.388Z,67.40
2023-03-01T20:16:11.860Z,67.60
2023-03-01T20:19:35.499Z,67.40
2023-03-01T20:22:59.608Z,67.20
2023-03-01T20:26:25.407Z,66.80
2023-03-01T20:29:49.645Z,66.80
2023-03-01T20:33:14.527Z,66.90
2023-03-01T20:36:40.823Z,67.20
2023-03-01T20:40:04.695Z,67.20
2023-03-01T20:43:28.772Z,67.30
2023-03-01T20:46:52.349Z,67.20
2023-03-01T20:50:18.435Z,68.00
2023-03-01T20:53:42.279Z,68.40
2023-03-01T20:57:05.793Z,68.70
2023-03-01T21:00:29.466Z,68.90
2023-03-01T21:03:56.228Z,69.00
2023-03-01T21:07:21.218Z,69.40
2023-03-01T21:10:50.379Z,69.70
2023-03-01T21:14:16.475Z,70.00
2023-03-01T21:17:40.314Z,70.10
2023-03-01T21:21:06.322Z,70.00
2023-03-01T21:24:31.961Z,70.30
2023-03-01T21:27:55.471Z,70.70
2023-03-01T21:31:22.176Z,70.80
2023-03-01T21:34:46.503Z,70.80
2023-03-01T21:38:10.144Z,71.20
2023-03-01T21:41:40.364Z,71.60
2023-03-01T21:45:04.310Z,71.80
2023-03-01T21:48:28.049Z,72.20
2023-03-01T21:51:51.677Z,72.50
2023-03-01T21:55:15.544Z,72.80
2023-03-01T21:58:41.405Z,72.90
2023-03-01T22:02:06.607Z,73.10
2023-03-01T22:05:30.131Z,73.30
2023-03-01T22:08:55.763Z,73.40
2023-03-01T22:12:19.215Z,74.40
2023-03-01T22:15:44.916Z,74.00
2023-03-01T22:19:08.821Z,74.30
2023-03-01T22:22:33.442Z,74.60
2023-03-01T22:25:57.838Z,74.90
2023-03-01T22:29:23.853Z,75.30
2023-03-01T22:32:49.139Z,75.30
2023-03-01T22:36:13.948Z,75.70
2023-03-01T22:39:37.428Z,76.00
2023-03-01T22:43:01.016Z,76.20
2023-03-01T22:46:24.971Z,76.20
2023-03-01T22:49:50.156Z,76.00
2023-03-01T22:53:14.053Z,75.80
2023-03-01T22:56:39.084Z,76.10
2023-03-01T23:00:02.709Z,75.90
2023-03-01T23:03:26.483Z,76.00
2023-03-01T23:06:53.691Z,75.80
2023-03-01T23:10:17.645Z,76.00
2023-03-01T23:13:41.654Z,76.10
2023-03-01T23:17:07.114Z,76.50
2023-03-01T23:20:30.676Z,76.30
2023-03-01T23:23:57.228Z,76.30
2023-03-01T23:27:20.897Z,76.70
2023-03-01T23:30:45.118Z,77.30
2023-03-01T23:34:13.958Z,76.60
2023-03-01T23:37:38.262Z,76.90
2023-03-01T23:41:05.993Z,77.20
2023-03-01T23:44:29.667Z,77.80
2023-03-01T23:47:54.887Z,78.20
2023-03-01T23:51:19.553Z,78.10
2023-03-01T23:54:43.143Z,78.80
2023-03-01T23:58:08.233Z,78.80
